METAR Data
IDs: Format: Raw Decoded Include TAF

Data at: 1025 UTC 13 Aug 2022

METAR for:KSPB (Scappoose Ind Airpar, OR, US)
Text:KSPB 130953Z AUTO 00000KT 10SM OVC050 14/11 A3015 RMK AO2 SLP209 T01390111
Temperature: 13.9°C ( 57°F)
Dewpoint: 11.1°C ( 52°F) [RH = 83%]
Pressure (altimeter):30.15 inches Hg (1021.1 mb) [Sea level pressure: 1020.9 mb]
Winds:calm
Visibility:10 or more sm (16+ km)
Ceiling:5000 feet AGL
Clouds: overcast cloud deck at 5000 feet AGL
QC Flag:automated observation with no human augmentation